Lamont, Washington
Current Conditions -  °F | °C
As of 11:58 AM on Friday 24 Oct 2014 (Local Time) from KSKA Reporting Station
Few Clouds Few Clouds  
Wind Chill: 51°   Ceiling: Unl
Heat Index: 51°   Visibility: 10mi
Dew Point: 41°   Wind: 2mph
Humidity: 67%   Direction: 170°S
Pressure: 30.09"   Gusts: NA
Location:  47.2°N, 117.91°W
Report Text: KSKA 241858Z AUTO 17002KT 10SM FEW190 11/05 A3009 RMK AO2 SLP198 T01080049
Loading
Personal Weather Stations






























Interactive Weather Map
Tropical Storm Tracking
New forecast layout! Learn more

10-Day Weather Forecast

Advertisements
Track Severe Weather on mobile